createdAt,value
2023-09-17T00:00:10.836Z,94231.66
2023-09-17T00:01:07.806Z,94229.44
2023-09-17T00:02:04.917Z,94232.06
2023-09-17T00:03:03.026Z,94229.69
2023-09-17T00:04:00.122Z,94235.78
2023-09-17T00:04:56.943Z,94234.72
2023-09-17T00:05:53.665Z,94233.84
2023-09-17T00:06:50.349Z,94243.44
2023-09-17T00:07:47.194Z,94226.22
2023-09-17T00:08:43.882Z,94213.75
2023-09-17T00:09:40.530Z,94233.81
2023-09-17T00:10:38.587Z,94228.09
2023-09-17T00:11:35.398Z,94230.72
2023-09-17T00:12:32.410Z,94220.41
2023-09-17T00:13:29.881Z,94224.34
2023-09-17T00:14:27.053Z,94220.66
2023-09-17T00:15:28.023Z,94226.91
2023-09-17T00:16:28.261Z,94227.31
2023-09-17T00:17:25.820Z,94225.72
2023-09-17T00:18:23.074Z,94215.75
2023-09-17T00:19:20.869Z,94227.19
2023-09-17T00:20:17.632Z,94226.13
2023-09-17T00:21:14.281Z,94217.34
2023-09-17T00:22:13.136Z,94218.56
2023-09-17T00:23:11.070Z,94215.84
2023-09-17T00:24:08.155Z,94213.50
2023-09-17T00:25:05.700Z,94221.03
2023-09-17T00:26:02.655Z,94219.88
2023-09-17T00:26:59.527Z,94222.16
2023-09-17T00:27:56.216Z,94202.59
2023-09-17T00:28:53.007Z,94214.34
2023-09-17T00:29:49.636Z,94199.13
2023-09-17T00:30:46.313Z,94216.84
2023-09-17T00:31:43.599Z,94199.47
2023-09-17T00:32:40.413Z,94212.25
2023-09-17T00:33:37.085Z,94207.81
2023-09-17T00:34:33.760Z,94208.72
2023-09-17T00:35:30.472Z,94209.97
2023-09-17T00:36:30.006Z,94210.38
2023-09-17T00:37:26.778Z,94210.94
2023-09-17T00:38:23.524Z,94215.91
2023-09-17T00:39:20.204Z,94209.75
2023-09-17T00:40:17.072Z,94210.78
2023-09-17T00:41:13.859Z,94204.25
2023-09-17T00:42:10.643Z,94214.41
2023-09-17T00:43:07.998Z,94205.38
2023-09-17T00:44:05.436Z,94214.25
2023-09-17T00:45:03.169Z,94206.81
2023-09-17T00:45:59.859Z,94205.19
2023-09-17T00:46:57.435Z,94208.19
2023-09-17T00:47:55.813Z,94206.41
2023-09-17T00:48:53.205Z,94191.34
2023-09-17T00:49:50.396Z,94208.97
2023-09-17T00:50:47.218Z,94210.56
2023-09-17T00:51:44.910Z,94206.31
2023-09-17T00:52:41.885Z,94195.56
2023-09-17T00:53:41.347Z,94205.56
2023-09-17T00:54:38.164Z,94199.00
2023-09-17T00:55:35.159Z,94201.19
2023-09-17T00:56:31.885Z,94204.19
2023-09-17T00:57:28.819Z,94203.81
2023-09-17T00:58:25.567Z,94202.06
2023-09-17T00:59:22.392Z,94196.16
2023-09-17T01:00:22.608Z,94199.75
2023-09-17T01:01:21.434Z,94201.66
2023-09-17T01:02:22.361Z,94201.34
2023-09-17T01:03:19.258Z,94185.19
2023-09-17T01:04:17.920Z,94192.00
2023-09-17T01:05:14.801Z,94195.19
2023-09-17T01:06:12.808Z,94192.47
2023-09-17T01:07:10.696Z,94192.72
2023-09-17T01:08:08.712Z,94197.28
2023-09-17T01:09:06.964Z,94181.84
2023-09-17T01:10:05.588Z,94197.28
2023-09-17T01:11:03.980Z,94199.22
2023-09-17T01:12:01.003Z,94203.06
2023-09-17T01:12:58.052Z,94201.88
2023-09-17T01:14:01.846Z,94206.31
2023-09-17T01:14:58.635Z,94197.41
2023-09-17T01:15:56.011Z,94202.78
2023-09-17T01:16:53.209Z,94197.44
2023-09-17T01:17:50.753Z,94199.44
2023-09-17T01:18:48.840Z,94208.50
2023-09-17T01:19:45.688Z,94205.19
2023-09-17T01:21:08.547Z,94201.03
2023-09-17T01:22:15.035Z,94206.66
2023-09-17T01:23:27.428Z,94199.84
2023-09-17T01:24:30.032Z,94206.75
2023-09-17T01:25:41.856Z,94190.13
2023-09-17T01:26:42.197Z,94191.91
2023-09-17T01:27:40.735Z,94199.19
2023-09-17T01:28:37.791Z,94194.53
2023-09-17T01:29:40.630Z,94194.88
2023-09-17T01:30:38.421Z,94200.41
2023-09-17T01:31:38.518Z,94195.69
2023-09-17T01:32:35.206Z,94206.53
2023-09-17T01:33:32.005Z,94201.91
2023-09-17T01:34:31.411Z,94197.22
2023-09-17T01:35:29.703Z,94207.38
2023-09-17T01:36:40.539Z,94208.06
2023-09-17T01:37:40.756Z,94205.13
2023-09-17T01:38:41.811Z,94205.81
2023-09-17T01:39:46.875Z,94188.72
2023-09-17T01:40:45.627Z,94204.25
2023-09-17T01:41:44.713Z,94194.97
2023-09-17T01:42:47.746Z,94203.47
2023-09-17T01:43:45.932Z,94199.06
2023-09-17T01:44:45.511Z,94197.88
2023-09-17T01:45:42.865Z,94201.28
2023-09-17T01:46:42.308Z,94197.91
2023-09-17T01:47:40.110Z,94192.09
2023-09-17T01:48:38.732Z,94200.88
2023-09-17T01:49:37.910Z,94184.34
2023-09-17T01:50:35.629Z,94192.47
2023-09-17T01:51:32.798Z,94201.19
2023-09-17T01:52:33.743Z,94203.91
2023-09-17T01:53:31.251Z,94194.94
2023-09-17T01:54:28.097Z,94196.16
2023-09-17T01:55:25.692Z,94198.09
2023-09-17T01:56:22.613Z,94203.06
2023-09-17T01:57:20.148Z,94200.78
2023-09-17T01:58:18.604Z,94198.34
2023-09-17T01:59:16.027Z,94200.69
2023-09-17T02:00:18.062Z,94201.50
2023-09-17T02:01:15.258Z,94199.97
2023-09-17T02:02:12.224Z,94192.84
2023-09-17T02:03:09.639Z,94189.44
2023-09-17T02:04:06.383Z,94193.63
2023-09-17T02:05:03.487Z,94200.81
2023-09-17T02:06:00.212Z,94201.41
2023-09-17T02:06:56.928Z,94204.72
2023-09-17T02:07:53.655Z,94199.28
2023-09-17T02:08:50.442Z,94192.72
2023-09-17T02:09:47.073Z,94202.53
2023-09-17T02:10:43.788Z,94204.81
2023-09-17T02:11:40.671Z,94204.97
2023-09-17T02:12:37.397Z,94212.75
2023-09-17T02:13:34.293Z,94215.53
2023-09-17T02:14:31.006Z,94209.59
2023-09-17T02:15:27.745Z,94205.69
2023-09-17T02:16:24.513Z,94208.34
2023-09-17T02:17:21.268Z,94212.34
2023-09-17T02:18:17.962Z,94214.31
2023-09-17T02:19:14.723Z,94205.81
2023-09-17T02:20:12.734Z,94210.34
2023-09-17T02:21:09.531Z,94208.13
2023-09-17T02:22:06.519Z,94207.31
2023-09-17T02:23:03.295Z,94202.78
2023-09-17T02:24:00.285Z,94205.13
2023-09-17T02:24:57.029Z,94206.44
2023-09-17T02:25:53.783Z,94205.03
2023-09-17T02:26:50.470Z,94199.91
2023-09-17T02:27:47.676Z,94210.16
2023-09-17T02:28:44.373Z,94203.09
2023-09-17T02:29:41.870Z,94212.69
2023-09-17T02:30:38.651Z,94204.94
2023-09-17T02:31:35.423Z,94211.19
2023-09-17T02:32:32.600Z,94206.66
2023-09-17T02:33:32.277Z,94211.91
2023-09-17T02:34:29.076Z,94211.56
2023-09-17T02:35:25.793Z,94208.09
2023-09-17T02:36:22.494Z,94205.44
2023-09-17T02:37:19.313Z,94205.44
2023-09-17T02:38:15.974Z,94211.66
2023-09-17T02:39:14.828Z,94196.50
2023-09-17T02:40:12.387Z,94204.53
2023-09-17T02:41:09.144Z,94208.84
2023-09-17T02:42:05.872Z,94201.47
2023-09-17T02:43:02.931Z,94199.97
2023-09-17T02:44:00.438Z,94196.88
2023-09-17T02:44:57.188Z,94200.44
2023-09-17T02:45:55.348Z,94195.31
2023-09-17T02:46:52.426Z,94200.81
2023-09-17T02:47:49.712Z,94193.38
2023-09-17T02:48:48.806Z,94190.25
2023-09-17T02:49:46.048Z,94192.19
2023-09-17T02:50:42.810Z,94191.91
2023-09-17T02:51:40.322Z,94190.25
2023-09-17T02:52:36.967Z,94188.31
2023-09-17T02:53:34.042Z,94194.88
2023-09-17T02:54:30.779Z,94197.28
2023-09-17T02:55:27.470Z,94189.19
2023-09-17T02:56:24.418Z,94191.09
2023-09-17T02:57:21.033Z,94193.88
2023-09-17T02:58:17.844Z,94188.63
2023-09-17T02:59:14.832Z,94178.28
2023-09-17T03:00:14.543Z,94193.69
2023-09-17T03:01:20.669Z,94194.44
2023-09-17T03:02:19.287Z,94185.66
2023-09-17T03:03:16.804Z,94188.94
2023-09-17T03:04:13.542Z,94182.06
2023-09-17T03:05:12.208Z,94188.03
2023-09-17T03:06:11.252Z,94184.09
2023-09-17T03:07:07.911Z,94184.44
2023-09-17T03:08:06.680Z,94179.78
2023-09-17T03:09:05.622Z,94186.03
2023-09-17T03:10:08.554Z,94180.88
2023-09-17T03:11:05.737Z,94185.94
2023-09-17T03:12:02.874Z,94186.16
2023-09-17T03:12:59.573Z,94187.22
2023-09-17T03:13:57.048Z,94169.50
2023-09-17T03:14:53.821Z,94186.44
2023-09-17T03:15:56.765Z,94193.41
2023-09-17T03:16:54.050Z,94188.66
2023-09-17T03:17:51.071Z,94190.25
2023-09-17T03:18:47.738Z,94182.03
2023-09-17T03:19:44.414Z,94189.03
2023-09-17T03:20:41.391Z,94188.97
2023-09-17T03:21:42.115Z,94190.53
2023-09-17T03:22:38.953Z,94184.88
2023-09-17T03:23:35.993Z,94194.72
2023-09-17T03:24:32.737Z,94199.47
2023-09-17T03:25:32.397Z,94198.03
2023-09-17T03:26:29.229Z,94199.81
2023-09-17T03:27:25.949Z,94194.72
2023-09-17T03:28:22.756Z,94197.78
2023-09-17T03:29:19.519Z,94202.19
2023-09-17T03:30:16.258Z,94194.88
2023-09-17T03:31:13.082Z,94190.56
2023-09-17T03:32:10.389Z,94198.56
2023-09-17T03:33:09.923Z,94198.34
2023-09-17T03:34:06.669Z,94188.28
2023-09-17T03:35:04.782Z,94188.63
2023-09-17T03:36:02.230Z,94194.13
2023-09-17T03:36:59.490Z,94195.28
2023-09-17T03:37:56.214Z,94191.25
2023-09-17T03:38:52.890Z,94190.97
2023-09-17T03:40:12.284Z,94192.81
2023-09-17T03:41:09.074Z,94194.78
2023-09-17T03:42:05.820Z,94190.25
2023-09-17T03:43:02.641Z,94196.69
2023-09-17T03:43:59.382Z,94193.22
2023-09-17T03:44:56.210Z,94193.88
2023-09-17T03:45:52.925Z,94198.44
2023-09-17T03:46:50.102Z,94193.41
2023-09-17T03:47:48.701Z,94195.44
2023-09-17T03:48:47.674Z,94195.53
2023-09-17T03:49:46.198Z,94192.81
2023-09-17T03:50:43.945Z,94189.31
2023-09-17T03:51:40.638Z,94195.16
2023-09-17T03:52:43.444Z,94185.56
2023-09-17T03:53:41.468Z,94189.03
2023-09-17T03:54:38.193Z,94186.34
2023-09-17T03:55:35.462Z,94193.16
2023-09-17T03:56:32.436Z,94198.34
2023-09-17T03:57:30.440Z,94194.88
2023-09-17T03:58:27.198Z,94195.16
2023-09-17T03:59:24.018Z,94203.94
2023-09-17T04:00:21.955Z,94194.38
2023-09-17T04:01:20.069Z,94195.59
2023-09-17T04:02:17.489Z,94205.38
2023-09-17T04:03:19.736Z,94198.22
2023-09-17T04:04:16.438Z,94198.78
2023-09-17T04:05:17.911Z,94201.13
2023-09-17T04:06:14.594Z,94200.63
2023-09-17T04:07:11.405Z,94196.94
2023-09-17T04:08:08.157Z,94204.09
2023-09-17T04:09:05.641Z,94205.59
2023-09-17T04:10:04.185Z,94204.81
2023-09-17T04:11:00.801Z,94207.50
2023-09-17T04:12:05.188Z,94203.91
2023-09-17T04:13:01.889Z,94208.63
2023-09-17T04:13:59.221Z,94199.16
2023-09-17T04:14:56.562Z,94201.06
2023-09-17T04:15:53.522Z,94206.88
2023-09-17T04:16:50.390Z,94209.22
2023-09-17T04:17:49.071Z,94220.28
2023-09-17T04:18:45.782Z,94212.19
2023-09-17T04:19:42.838Z,94203.25
2023-09-17T04:20:39.648Z,94212.81
2023-09-17T04:21:36.282Z,94215.94
2023-09-17T04:22:34.737Z,94217.94
2023-09-17T04:23:31.482Z,94216.44
2023-09-17T04:24:28.140Z,94222.19
2023-09-17T04:25:27.167Z,94193.28
2023-09-17T04:26:25.481Z,94224.53
2023-09-17T04:27:22.366Z,94226.47
2023-09-17T04:28:20.625Z,94221.50
2023-09-17T04:29:17.395Z,94220.91
2023-09-17T04:30:15.351Z,94221.34
2023-09-17T04:31:12.127Z,94222.00
2023-09-17T04:32:09.012Z,94227.44
2023-09-17T04:33:05.919Z,94219.75
2023-09-17T04:34:02.670Z,94220.84
2023-09-17T04:34:59.281Z,94223.38
2023-09-17T04:35:57.546Z,94221.91
2023-09-17T04:36:54.206Z,94220.22
2023-09-17T04:37:51.489Z,94219.19
2023-09-17T04:38:49.103Z,94212.25
2023-09-17T04:39:46.089Z,94215.66
2023-09-17T04:40:43.345Z,94216.50
2023-09-17T04:41:40.003Z,94214.97
2023-09-17T04:42:37.470Z,94216.06
2023-09-17T04:43:34.228Z,94214.97
2023-09-17T04:44:30.818Z,94208.81
2023-09-17T04:45:39.748Z,94212.75
2023-09-17T04:46:36.626Z,94209.16
2023-09-17T04:47:37.882Z,94210.72
2023-09-17T04:48:34.612Z,94201.53
2023-09-17T04:49:32.956Z,94211.59
2023-09-17T04:50:29.992Z,94198.09
2023-09-17T04:51:28.519Z,94215.91
2023-09-17T04:52:25.184Z,94209.00
2023-09-17T04:53:21.985Z,94189.09
2023-09-17T04:54:19.691Z,94210.75
2023-09-17T04:55:16.364Z,94213.81
2023-09-17T04:56:13.086Z,94213.91
2023-09-17T04:57:09.815Z,94214.59
2023-09-17T04:58:06.497Z,94209.50
2023-09-17T04:59:03.186Z,94214.00
2023-09-17T05:00:01.345Z,94213.53
2023-09-17T05:00:58.121Z,94213.63
2023-09-17T05:01:54.803Z,94200.16
2023-09-17T05:02:51.651Z,94212.22
2023-09-17T05:03:48.581Z,94218.69
2023-09-17T05:04:46.270Z,94213.75
2023-09-17T05:05:42.984Z,94209.88
2023-09-17T05:06:39.871Z,94202.13
2023-09-17T05:07:38.867Z,94215.91
2023-09-17T05:08:35.713Z,94211.72
2023-09-17T05:09:32.476Z,94210.44
2023-09-17T05:10:29.292Z,94219.47
2023-09-17T05:11:26.528Z,94223.06
2023-09-17T05:12:23.288Z,94222.94
2023-09-17T05:13:20.015Z,94221.31
2023-09-17T05:14:16.736Z,94216.81
2023-09-17T05:15:13.656Z,94219.47
2023-09-17T05:16:10.367Z,94212.25
2023-09-17T05:17:07.224Z,94217.25
2023-09-17T05:18:10.896Z,94211.06
2023-09-17T05:19:07.976Z,94210.72
2023-09-17T05:20:08.271Z,94210.03
2023-09-17T05:21:05.118Z,94218.13
2023-09-17T05:22:01.852Z,94210.34
2023-09-17T05:22:58.713Z,94218.50
2023-09-17T05:23:55.422Z,94218.03
2023-09-17T05:24:52.075Z,94213.41
2023-09-17T05:25:49.040Z,94212.63
2023-09-17T05:26:45.750Z,94209.97
2023-09-17T05:27:42.391Z,94214.16
2023-09-17T05:28:39.113Z,94212.72
2023-09-17T05:29:35.947Z,94213.50
2023-09-17T05:30:32.704Z,94216.94
2023-09-17T05:31:29.492Z,94216.34
2023-09-17T05:32:27.122Z,94220.47
2023-09-17T05:33:26.154Z,94219.66
2023-09-17T05:34:24.006Z,94212.31
2023-09-17T05:35:20.765Z,94221.22
2023-09-17T05:36:17.473Z,94217.78
2023-09-17T05:37:14.131Z,94210.56
2023-09-17T05:38:10.853Z,94212.41
2023-09-17T05:39:09.679Z,94207.88
2023-09-17T05:40:06.969Z,94205.56
2023-09-17T05:41:04.317Z,94204.41
2023-09-17T05:42:00.978Z,94210.97
2023-09-17T05:42:58.624Z,94210.31
2023-09-17T05:43:55.501Z,94206.06
2023-09-17T05:44:52.381Z,94208.69
2023-09-17T05:45:49.078Z,94210.97
2023-09-17T05:46:45.896Z,94215.59
2023-09-17T05:47:44.006Z,94212.50
2023-09-17T05:48:40.916Z,94205.13
2023-09-17T05:49:37.524Z,94209.84
2023-09-17T05:50:34.205Z,94208.78
2023-09-17T05:51:31.135Z,94218.81
2023-09-17T05:52:27.913Z,94209.00
2023-09-17T05:53:27.144Z,94217.16
2023-09-17T05:54:23.864Z,94230.25
2023-09-17T05:55:20.574Z,94225.31
2023-09-17T05:56:17.341Z,94213.66
2023-09-17T05:57:14.074Z,94229.97
2023-09-17T05:58:10.857Z,94225.78
2023-09-17T05:59:07.560Z,94234.25
2023-09-17T06:00:05.371Z,94232.41
2023-09-17T06:01:02.055Z,94232.03
2023-09-17T06:01:59.919Z,94230.47
2023-09-17T06:02:56.649Z,94221.88
2023-09-17T06:03:53.700Z,94236.53
2023-09-17T06:04:54.441Z,94230.81
2023-09-17T06:05:51.261Z,94240.00
2023-09-17T06:06:47.976Z,94236.94
2023-09-17T06:07:44.707Z,94240.72
2023-09-17T06:08:41.400Z,94238.75
2023-09-17T06:09:38.175Z,94237.75
2023-09-17T06:10:35.005Z,94242.75
2023-09-17T06:11:32.396Z,94242.41
2023-09-17T06:12:29.117Z,94240.88
2023-09-17T06:13:26.343Z,94234.28
2023-09-17T06:14:23.079Z,94231.22
2023-09-17T06:15:19.866Z,94240.50
2023-09-17T06:16:16.623Z,94233.19
2023-09-17T06:17:13.417Z,94239.38
2023-09-17T06:18:10.192Z,94240.47
2023-09-17T06:19:06.894Z,94245.91
2023-09-17T06:20:03.983Z,94239.38
2023-09-17T06:21:00.941Z,94236.25
2023-09-17T06:21:57.682Z,94233.19
2023-09-17T06:22:54.350Z,94237.47
2023-09-17T06:23:51.056Z,94249.84
2023-09-17T06:24:48.088Z,94234.38
2023-09-17T06:25:44.943Z,94242.50
2023-09-17T06:26:41.695Z,94248.28
2023-09-17T06:27:38.443Z,94245.22
2023-09-17T06:28:35.173Z,94244.81
2023-09-17T06:29:31.845Z,94249.09
2023-09-17T06:30:30.510Z,94243.69
2023-09-17T06:31:27.740Z,94247.91
2023-09-17T06:32:24.725Z,94240.53
2023-09-17T06:33:21.475Z,94245.19
2023-09-17T06:34:18.189Z,94242.50
2023-09-17T06:35:15.016Z,94247.91
2023-09-17T06:36:11.784Z,94248.28
2023-09-17T06:37:08.684Z,94253.28
2023-09-17T06:38:05.362Z,94241.72
2023-09-17T06:39:02.277Z,94246.69
2023-09-17T06:39:59.023Z,94252.16
2023-09-17T06:40:55.794Z,94248.31
2023-09-17T06:41:52.479Z,94251.75
2023-09-17T06:42:49.491Z,94251.41
2023-09-17T06:43:47.557Z,94239.06
2023-09-17T06:44:44.324Z,94249.47
2023-09-17T06:45:41.066Z,94249.88
2023-09-17T06:46:38.604Z,94244.84
2023-09-17T06:47:35.770Z,94238.66
2023-09-17T06:48:32.755Z,94256.41
2023-09-17T06:49:29.550Z,94242.09
2023-09-17T06:50:27.829Z,94251.38
2023-09-17T06:51:24.491Z,94247.94
2023-09-17T06:52:23.060Z,94252.16
2023-09-17T06:53:20.956Z,94254.09
2023-09-17T06:54:17.861Z,94256.00
2023-09-17T06:55:14.559Z,94252.09
2023-09-17T06:56:13.970Z,94250.94
2023-09-17T06:57:11.102Z,94255.19
2023-09-17T06:58:07.903Z,94259.09
2023-09-17T06:59:05.019Z,94257.13
2023-09-17T07:00:01.734Z,94231.19
2023-09-17T07:00:58.597Z,94259.81
2023-09-17T07:01:55.373Z,94259.06
2023-09-17T07:02:52.208Z,94262.19
2023-09-17T07:03:48.939Z,94259.13
2023-09-17T07:04:46.157Z,94264.84
2023-09-17T07:05:43.026Z,94259.81
2023-09-17T07:06:39.962Z,94250.16
2023-09-17T07:07:36.815Z,94262.94
2023-09-17T07:08:33.801Z,94259.84
2023-09-17T07:09:30.548Z,94264.06
2023-09-17T07:10:27.402Z,94251.78
2023-09-17T07:11:24.352Z,94257.94
2023-09-17T07:12:21.034Z,94266.38
2023-09-17T07:13:17.843Z,94260.09
2023-09-17T07:14:14.451Z,94267.94
2023-09-17T07:15:11.736Z,94261.78
2023-09-17T07:16:09.221Z,94254.13
2023-09-17T07:17:05.929Z,94262.59
2023-09-17T07:18:02.638Z,94257.56
2023-09-17T07:18:59.246Z,94259.09
2023-09-17T07:19:55.886Z,94260.22
2023-09-17T07:20:52.713Z,94257.50
2023-09-17T07:21:49.412Z,94265.22
2023-09-17T07:22:48.229Z,94266.72
2023-09-17T07:23:45.027Z,94265.84
2023-09-17T07:24:43.204Z,94263.56
2023-09-17T07:25:39.938Z,94266.91
2023-09-17T07:26:36.747Z,94268.72
2023-09-17T07:27:33.783Z,94270.78
2023-09-17T07:28:31.078Z,94239.56
2023-09-17T07:29:28.095Z,94276.63
2023-09-17T07:30:26.001Z,94272.34
2023-09-17T07:31:22.949Z,94274.78
2023-09-17T07:32:19.754Z,94268.25
2023-09-17T07:33:16.707Z,94271.78
2023-09-17T07:34:13.317Z,94279.16
2023-09-17T07:35:10.190Z,94271.75
2023-09-17T07:36:07.614Z,94276.72
2023-09-17T07:37:05.825Z,94275.84
2023-09-17T07:38:02.622Z,94274.34
2023-09-17T07:38:59.281Z,94272.84
2023-09-17T07:40:02.595Z,94275.91
2023-09-17T07:40:59.321Z,94265.38
2023-09-17T07:41:56.024Z,94274.19
2023-09-17T07:42:52.829Z,94274.44
2023-09-17T07:43:49.869Z,94280.91
2023-09-17T07:44:47.228Z,94285.72
2023-09-17T07:45:43.844Z,94287.00
2023-09-17T07:46:40.507Z,94289.78
2023-09-17T07:47:37.403Z,94281.78
2023-09-17T07:48:34.186Z,94287.34
2023-09-17T07:49:30.985Z,94287.16
2023-09-17T07:50:27.696Z,94283.78
2023-09-17T07:51:24.300Z,94284.63
2023-09-17T07:52:20.968Z,94281.78
2023-09-17T07:53:17.658Z,94284.19
2023-09-17T07:54:14.365Z,94280.69
2023-09-17T07:55:11.235Z,94274.69
2023-09-17T07:56:07.998Z,94282.66
2023-09-17T07:57:05.355Z,94283.09
2023-09-17T07:58:02.498Z,94280.28
2023-09-17T07:58:59.224Z,94280.66
2023-09-17T07:59:56.318Z,94291.75
2023-09-17T08:00:54.821Z,94284.09
2023-09-17T08:01:52.702Z,94283.81
2023-09-17T08:02:50.531Z,94287.66
2023-09-17T08:03:47.603Z,94288.50
2023-09-17T08:04:44.438Z,94289.84
2023-09-17T08:05:44.174Z,94296.41
2023-09-17T08:06:40.919Z,94293.22
2023-09-17T08:07:37.885Z,94294.06
2023-09-17T08:08:34.606Z,94296.75
2023-09-17T08:09:31.502Z,94300.19
2023-09-17T08:10:29.302Z,94293.22
2023-09-17T08:11:30.679Z,94293.34
2023-09-17T08:13:24.079Z,94293.13
2023-09-17T08:14:23.770Z,94285.97
2023-09-17T08:15:20.740Z,94292.78
2023-09-17T08:16:18.768Z,94281.50
2023-09-17T08:17:15.692Z,94280.28
2023-09-17T08:18:12.419Z,94293.94
2023-09-17T08:19:09.083Z,94296.31
2023-09-17T08:20:08.496Z,94296.56
2023-09-17T08:21:05.362Z,94292.63
2023-09-17T08:22:02.036Z,94287.44
2023-09-17T08:22:59.801Z,94292.41
2023-09-17T08:23:57.265Z,94294.00
2023-09-17T08:24:54.192Z,94287.28
2023-09-17T08:25:52.131Z,94295.19
2023-09-17T08:26:49.046Z,94282.09
2023-09-17T08:27:48.137Z,94296.78
2023-09-17T08:28:46.892Z,94295.50
2023-09-17T08:29:44.788Z,94291.53
2023-09-17T08:30:42.054Z,94294.50
2023-09-17T08:31:39.458Z,94290.16
2023-09-17T08:32:36.146Z,94295.50
2023-09-17T08:33:32.965Z,94293.72
2023-09-17T08:34:29.695Z,94289.06
2023-09-17T08:35:26.480Z,94281.25
2023-09-17T08:36:23.090Z,94289.03
2023-09-17T08:37:19.801Z,94283.81
2023-09-17T08:38:16.637Z,94286.44
2023-09-17T08:39:13.326Z,94289.63
2023-09-17T08:40:14.740Z,94271.34
2023-09-17T08:41:13.319Z,94280.91
2023-09-17T08:42:10.352Z,94289.00
2023-09-17T08:43:07.274Z,94285.88
2023-09-17T08:44:07.376Z,94280.09
2023-09-17T08:45:06.110Z,94275.84
2023-09-17T08:46:05.014Z,94278.13
2023-09-17T08:47:02.048Z,94274.22
2023-09-17T08:47:59.930Z,94272.44
2023-09-17T08:48:56.643Z,94275.41
2023-09-17T08:49:53.360Z,94277.81
2023-09-17T08:50:52.376Z,94270.44
2023-09-17T08:51:51.393Z,94278.19
2023-09-17T08:52:55.311Z,94253.13
2023-09-17T08:54:18.671Z,94275.56
2023-09-17T08:55:18.296Z,94280.06
2023-09-17T08:56:18.390Z,94270.00
2023-09-17T08:57:15.673Z,94270.25
2023-09-17T08:58:25.425Z,94268.50
2023-09-17T08:59:30.909Z,94274.63
2023-09-17T09:00:30.612Z,94272.13
2023-09-17T09:01:27.591Z,94268.63
2023-09-17T09:02:32.967Z,94270.03
2023-09-17T09:03:34.826Z,94266.94
2023-09-17T09:04:32.541Z,94259.91
2023-09-17T09:05:29.693Z,94268.88
2023-09-17T09:06:29.162Z,94267.72
2023-09-17T09:07:27.128Z,94264.00
2023-09-17T09:08:25.019Z,94266.34
2023-09-17T09:09:23.157Z,94257.47
2023-09-17T09:10:21.547Z,94259.50
2023-09-17T09:11:18.706Z,94254.38
2023-09-17T09:12:17.211Z,94253.38
2023-09-17T09:13:14.522Z,94262.34
2023-09-17T09:14:11.766Z,94263.97
2023-09-17T09:15:11.176Z,94263.53
2023-09-17T09:16:08.018Z,94260.34
2023-09-17T09:17:04.983Z,94261.44
2023-09-17T09:18:02.243Z,94260.59
2023-09-17T09:18:59.197Z,94261.59
2023-09-17T09:19:57.047Z,94265.38
2023-09-17T09:20:53.715Z,94260.63
2023-09-17T09:21:50.293Z,94263.84
2023-09-17T09:22:47.167Z,94256.75
2023-09-17T09:23:44.147Z,94247.94
2023-09-17T09:24:50.383Z,94252.84
2023-09-17T09:25:47.120Z,94253.78
2023-09-17T09:26:43.910Z,94251.69
2023-09-17T09:27:40.533Z,94262.66
2023-09-17T09:28:37.353Z,94262.56
2023-09-17T09:29:35.321Z,94254.97
2023-09-17T09:30:32.159Z,94249.78
2023-09-17T09:31:30.855Z,94255.88
2023-09-17T09:32:27.750Z,94253.00
2023-09-17T09:33:26.121Z,94248.25
2023-09-17T09:34:25.704Z,94249.41
2023-09-17T09:35:22.623Z,94254.81
2023-09-17T09:36:21.431Z,94246.38
2023-09-17T09:37:23.029Z,94251.28
2023-09-17T09:38:20.048Z,94246.97
2023-09-17T09:39:17.361Z,94253.78
2023-09-17T09:40:15.646Z,94249.84
2023-09-17T09:41:14.202Z,94231.44
2023-09-17T09:42:13.100Z,94250.00
2023-09-17T09:43:32.631Z,94254.88
2023-09-17T09:44:31.965Z,94258.16
2023-09-17T09:45:29.449Z,94250.69
2023-09-17T09:46:27.350Z,94253.78
2023-09-17T09:47:24.560Z,94259.31
2023-09-17T09:48:21.403Z,94258.34
2023-09-17T09:49:18.385Z,94260.16
2023-09-17T09:50:26.030Z,94258.09
2023-09-17T09:51:22.801Z,94253.47
2023-09-17T09:52:22.522Z,94251.34
2023-09-17T09:53:20.118Z,94259.56
2023-09-17T09:54:16.859Z,94246.59
2023-09-17T09:55:14.930Z,94259.69
2023-09-17T09:56:12.585Z,94249.69
2023-09-17T09:57:12.179Z,94255.41
2023-09-17T09:58:10.841Z,94262.03
2023-09-17T09:59:07.917Z,94259.69
2023-09-17T10:00:08.905Z,94252.56
2023-09-17T10:01:05.916Z,94251.03
2023-09-17T10:02:06.468Z,94252.84
2023-09-17T10:03:03.345Z,94255.03
2023-09-17T10:04:00.479Z,94253.41
2023-09-17T10:04:57.871Z,94247.72
2023-09-17T10:06:05.114Z,94249.41
2023-09-17T10:07:03.636Z,94243.69
2023-09-17T10:08:01.420Z,94251.56
2023-09-17T10:09:00.432Z,94246.88
2023-09-17T10:09:58.802Z,94248.31
2023-09-17T10:10:55.615Z,94248.03
2023-09-17T10:11:55.327Z,94249.00
2023-09-17T10:12:54.709Z,94246.28
2023-09-17T10:13:54.928Z,94249.56
2023-09-17T10:14:51.749Z,94250.91
2023-09-17T10:15:48.557Z,94243.16
2023-09-17T10:16:45.409Z,94239.69
2023-09-17T10:17:42.474Z,94244.53
2023-09-17T10:18:40.006Z,94245.22
2023-09-17T10:19:39.317Z,94239.75
2023-09-17T10:20:36.221Z,94236.09
2023-09-17T10:21:39.248Z,94238.88
2023-09-17T10:22:38.062Z,94235.44
2023-09-17T10:23:35.213Z,94236.72
2023-09-17T10:24:33.213Z,94238.16
2023-09-17T10:25:31.556Z,94238.69
2023-09-17T10:26:33.927Z,94234.88
2023-09-17T10:27:32.673Z,94243.75
2023-09-17T10:28:32.741Z,94236.53
2023-09-17T10:29:31.811Z,94236.91
2023-09-17T10:30:29.232Z,94241.75
2023-09-17T10:31:30.986Z,94230.19
2023-09-17T10:32:30.157Z,94241.53
2023-09-17T10:33:28.479Z,94234.19
2023-09-17T10:34:28.541Z,94230.94
2023-09-17T10:35:26.374Z,94235.13
2023-09-17T10:36:26.206Z,94221.81
2023-09-17T10:37:23.265Z,94225.56
2023-09-17T10:38:23.666Z,94231.28
2023-09-17T10:39:22.277Z,94235.56
2023-09-17T10:40:19.457Z,94233.59
2023-09-17T10:41:16.690Z,94229.31
2023-09-17T10:42:14.775Z,94238.00
2023-09-17T10:43:13.148Z,94234.34
2023-09-17T10:44:15.030Z,94234.00
2023-09-17T10:45:12.137Z,94221.06
2023-09-17T10:46:10.022Z,94234.59
2023-09-17T10:47:11.137Z,94232.97
2023-09-17T10:48:09.661Z,94232.97
2023-09-17T10:49:08.630Z,94226.16
2023-09-17T10:50:06.268Z,94219.50
2023-09-17T10:51:04.654Z,94225.41
2023-09-17T10:52:01.515Z,94228.81
2023-09-17T10:52:58.265Z,94216.22
2023-09-17T10:53:55.778Z,94231.81
2023-09-17T10:54:52.514Z,94223.22
2023-09-17T10:55:55.430Z,94219.31
2023-09-17T10:56:52.703Z,94217.00
2023-09-17T10:58:03.502Z,94213.72
2023-09-17T10:59:00.963Z,94226.34
2023-09-17T11:00:00.466Z,94217.97
2023-09-17T11:00:59.120Z,94219.31
2023-09-17T11:01:57.594Z,94207.34
2023-09-17T11:02:58.426Z,94213.63
2023-09-17T11:04:25.453Z,94210.97
2023-09-17T11:05:25.701Z,94197.28
2023-09-17T11:06:26.806Z,94201.00
2023-09-17T11:07:23.729Z,94196.69
2023-09-17T11:08:21.929Z,94207.66
2023-09-17T11:09:21.486Z,94201.41
2023-09-17T11:10:29.936Z,94193.91
2023-09-17T11:11:31.227Z,94200.53
2023-09-17T11:12:27.988Z,94193.03
2023-09-17T11:13:25.776Z,94195.97
2023-09-17T11:14:23.091Z,94194.88
2023-09-17T11:15:19.972Z,94196.00
2023-09-17T11:16:17.133Z,94195.63
2023-09-17T11:17:19.097Z,94192.13
2023-09-17T11:18:15.966Z,94193.75
2023-09-17T11:19:20.630Z,94189.00
2023-09-17T11:20:19.370Z,94182.34
2023-09-17T11:21:16.573Z,94196.09
2023-09-17T11:22:13.940Z,94182.63